الصفحة الرئيسية
METAR-TAF:

METAR-TAF

مطار :

Window Rock Airport

Window Rock, أريزونا, الولايات المتحدة

دائرة عرض: 35-39N, خط طول: 109-04W, ارتفاع: 2055 متر

مراقبة الطقس الحالي

تاريخ ووقت الإصدار 30 دقيقة قبل الساعة 09:53UTC
رياح هادئة
درجة الحرارة -1°درجة مئوية
الرطوبة 28%
ضغط 1030 hPa
الرؤية: 16.1 كم
سماء صافية

METAR: KRQE 290953Z AUTO 00000KT 10SM CLR M01/M17 A3042 RMK AO2 SLP230 T10111167 TSNO

زمن: 03:23 (10:23 UTC)


TAF: مفقودة

أرصاد الطقس والتوقعات من أكثر من 4000 مطار (تقارير الطقس للمطار METAR والتنبؤ بالطقس بالمطارTAF).

المحطات المتاحة هي النقط الصفراء والحمراء على الخريطة.

حرك المؤشر فوق النقطة لمعرفة اسم المحطة.

ثم انقر لمعرفة أرصاد وتوقعات الطقس.

لتغيير الخارطة: اضغط على الأزرار الخضراء مع رمز الصليب الأسود للتكبير. على الزر الأخضر مع شرطة للتصغير، أو على الأسهم الخضراء للخرائط المجاورة.


METAR-TAF: